TimeMST,TemperatureF,Dew PointF,Humidity,Sea Level PressureIn,VisibilityMPH,Wind Direction,Wind SpeedMPH,Gust SpeedMPH,PrecipitationIn,Events,Conditions,WindDirDegrees,DateUTC
12:53 AM,33.1,21.0,61,29.64,10.0,NNW,21.9,36.8,N/A,,Clear,340,2013-02-18 07:53:00
1:53 AM,30.0,21.0,69,29.67,10.0,NNW,18.4,27.6,N/A,,Clear,340,2013-02-18 08:53:00
2:53 AM,28.9,19.9,69,29.68,10.0,NNW,20.7,26.5,N/A,,Clear,330,2013-02-18 09:53:00
3:53 AM,28.0,19.0,69,29.73,10.0,NNW,24.2,29.9,N/A,,Clear,340,2013-02-18 10:53:00
4:53 AM,26.1,18.0,71,29.79,10.0,NNW,19.6,29.9,N/A,,Clear,330,2013-02-18 11:53:00
5:53 AM,28.0,19.0,69,29.83,10.0,NNW,24.2,33.4,N/A,,Overcast,340,2013-02-18 12:53:00
6:53 AM,28.0,19.0,69,29.89,10.0,NNW,21.9,27.6,N/A,,Mostly Cloudy,330,2013-02-18 13:53:00
7:53 AM,30.9,18.0,59,29.92,10.0,NNW,25.3,33.4,N/A,,Partly Cloudy,330,2013-02-18 14:53:00
8:53 AM,33.1,18.0,54,29.94,10.0,NNW,21.9,36.8,N/A,,Clear,330,2013-02-18 15:53:00
9:53 AM,37.0,16.0,42,29.95,10.0,North,25.3,38.0,N/A,,Partly Cloudy,350,2013-02-18 16:53:00
10:53 AM,39.0,12.9,34,29.97,10.0,North,33.4,42.6,N/A,,Clear,350,2013-02-18 17:53:00
11:53 AM,42.1,12.0,29,29.97,10.0,NNW,19.6,38.0,N/A,,Scattered Clouds,340,2013-02-18 18:53:00
12:53 PM,41.0,10.0,28,29.96,10.0,North,19.6,35.7,N/A,,Scattered Clouds,350,2013-02-18 19:53:00
1:53 PM,42.1,10.0,27,29.97,10.0,NNW,25.3,32.2,N/A,,Scattered Clouds,330,2013-02-18 20:53:00
2:53 PM,43.0,10.0,26,29.98,10.0,North,17.3,24.2,N/A,,Mostly Cloudy,350,2013-02-18 21:53:00
3:53 PM,41.0,9.0,27,30.00,10.0,NW,16.1,20.7,N/A,,Overcast,310,2013-02-18 22:53:00
4:53 PM,36.0,19.0,50,30.05,10.0,North,18.4,25.3,0.00,,Scattered Clouds,360,2013-02-18 23:53:00
6:53 PM,25.0,19.9,81,30.13,10.0,North,6.9,-,N/A,,Clear,10,2013-02-19 01:53:00
7:53 PM,17.1,15.1,92,30.17,10.0,WSW,4.6,-,N/A,,Clear,250,2013-02-19 02:53:00
8:53 PM,15.1,10.9,84,30.19,10.0,WSW,8.1,-,N/A,,Clear,240,2013-02-19 03:53:00
9:53 PM,15.1,12.0,88,30.19,10.0,West,8.1,-,N/A,,Clear,260,2013-02-19 04:53:00
10:53 PM,15.1,12.0,88,30.19,10.0,West,8.1,-,N/A,,Clear,280,2013-02-19 05:53:00
11:53 PM,12.9,10.0,88,30.19,10.0,West,6.9,-,N/A,,Clear,270,2013-02-19 06:53:00